Time;durP1;ratioP1;P1;durP2;ratioP2;P2;SDS_P1;SDS_P2;PMS_P1;PMS_P2;Temp;Humidity;BMP_temperature;BMP_pressure;BME280_temperature;BME280_humidity;BME280_pressure;Samples;Min_cycle;Max_cycle;Signal;HPM_P1;HPM_P2
2020/12/01 00:01:51;;;;;;;61.53;34.53;;;;;;;-0.50;71.20;100600.00;1705408;83;21289;-63
2020/12/01 00:04:20;;;;;;;171.70;81.65;;;;;;;-0.51;71.29;100590.34;1704850;83;21175;-63
2020/12/01 00:06:48;;;;;;;104.23;53.98;;;;;;;-0.56;71.62;100598.55;1710465;83;21527;-63
2020/12/01 00:13:35;;;;;;;44.05;25.75;;;;;;;-0.56;71.52;100598.55;1688600;83;21156;-63
2020/12/01 00:16:02;;;;;;;49.33;27.25;;;;;;;-0.61;71.69;100613.81;1675806;83;21302;-64
2020/12/01 00:18:30;;;;;;;87.08;47.27;;;;;;;-0.66;71.81;100604.15;1713756;83;21782;-63
2020/12/01 00:20:57;;;;;;;67.25;38.73;;;;;;;-0.63;71.94;100618.50;1708133;83;21287;-63
2020/12/01 00:23:24;;;;;;;58.20;32.88;;;;;;;-0.61;72.01;100616.50;1710687;83;21642;-64
2020/12/01 00:25:52;;;;;;;51.55;28.40;;;;;;;-0.63;71.93;100614.48;1714495;83;21279;-63
2020/12/01 00:28:20;;;;;;;37.42;21.20;;;;;;;-0.64;72.14;100610.14;1710325;83;21173;-63
2020/12/01 00:30:47;;;;;;;43.68;24.02;;;;;;;-0.71;72.05;100613.20;1681085;83;21279;-64
2020/12/01 00:33:14;;;;;;;46.58;25.72;;;;;;;-0.69;71.93;100611.69;1711967;82;21169;-63
2020/12/01 00:35:42;;;;;;;76.62;39.58;;;;;;;-0.73;72.00;100619.23;1715522;83;21303;-63
2020/12/01 00:38:09;;;;;;;42.90;23.47;;;;;;;-0.73;72.11;100611.22;1684736;83;21720;-63
2020/12/01 00:40:36;;;;;;;47.10;26.55;;;;;;;-0.68;71.81;100614.20;1709005;83;21361;-63
2020/12/01 00:43:04;;;;;;;38.67;23.25;;;;;;;-0.70;71.73;100612.70;1675427;84;21196;-62
2020/12/01 00:45:31;;;;;;;39.78;21.27;;;;;;;-0.69;71.86;100611.69;1707176;82;21818;-61
2020/12/01 00:47:58;;;;;;;36.83;21.02;;;;;;;-0.72;71.85;100600.02;1658033;82;21136;-63
2020/12/01 00:50:26;;;;;;;30.27;16.87;;;;;;;-0.72;71.57;100600.86;1713058;82;21295;-64
2020/12/01 00:52:54;;;;;;;52.60;30.55;;;;;;;-0.73;71.46;100592.50;1674627;83;21709;-63
2020/12/01 00:55:22;;;;;;;59.83;34.88;;;;;;;-0.71;71.42;100595.02;1667213;84;21172;-64
2020/12/01 00:57:49;;;;;;;38.63;23.83;;;;;;;-0.70;71.50;100588.12;1666319;83;21141;-63
2020/12/01 01:00:21;;;;;;;35.45;21.07;;;;;;;-0.63;71.29;100588.24;1710381;83;21559;-63
2020/12/01 01:02:53;;;;;;;36.98;19.07;;;;;;;-0.62;71.25;100590.75;1689851;82;21275;-63
2020/12/01 01:05:21;;;;;;;36.53;20.35;;;;;;;-0.61;71.19;100587.58;1712485;83;21288;-63
2020/12/01 01:07:48;;;;;;;33.42;19.80;;;;;;;-0.59;71.20;100585.54;1709469;83;21593;-63
2020/12/01 01:10:24;;;;;;;37.05;22.90;;;;;;;-0.58;71.09;100585.38;1703625;83;21168;-63
2020/12/01 01:12:58;;;;;;;37.40;22.67;;;;;;;-0.53;71.07;100586.98;1777144;79;23530;-63
2020/12/01 01:15:30;;;;;;;44.15;24.07;;;;;;;-0.51;70.95;100586.83;1717858;83;21318;-63
2020/12/01 01:17:57;;;;;;;32.10;18.70;;;;;;;-0.50;70.92;100597.33;1718700;83;21279;-63
2020/12/01 01:20:26;;;;;;;38.25;20.32;;;;;;;-0.46;70.88;100597.80;1703887;83;21797;-63
2020/12/01 01:22:55;;;;;;;32.98;20.05;;;;;;;-0.42;70.63;100603.62;1720237;82;21298;-63
2020/12/01 01:25:24;;;;;;;29.85;15.98;;;;;;;-0.43;70.29;100603.31;1708529;83;21140;-63
2020/12/01 01:27:51;;;;;;;30.37;16.07;;;;;;;-0.43;69.93;100609.50;1722516;82;21680;-63
2020/12/01 01:30:22;;;;;;;40.20;21.60;;;;;;;-0.48;70.11;100605.69;1722379;82;21137;-64
2020/12/01 01:32:49;;;;;;;32.17;17.62;;;;;;;-0.54;70.17;100613.43;1722610;83;21303;-61
2020/12/01 01:35:18;;;;;;;36.13;19.30;;;;;;;-0.56;70.12;100608.75;1720804;83;21291;-62
2020/12/01 01:37:47;;;;;;;36.68;20.68;;;;;;;-0.62;70.34;100609.47;1694150;83;21153;-62
2020/12/01 01:40:24;;;;;;;38.25;20.77;;;;;;;-0.63;70.30;100610.97;1719934;82;21142;-63
2020/12/01 01:42:51;;;;;;;30.02;17.17;;;;;;;-0.64;70.50;100608.00;1723940;82;21314;-62
2020/12/01 01:45:46;;;;;;;33.55;19.70;;;;;;;-0.60;70.41;100610.61;1720534;83;21138;-62
2020/12/01 01:48:29;;;;;;;34.10;17.98;;;;;;;-0.61;70.45;100603.13;1714805;83;21189;-62
2020/12/01 01:51:16;;;;;;;35.55;19.67;;;;;;;-0.65;70.61;100598.30;1712116;83;21339;-62
2020/12/01 01:53:47;;;;;;;29.87;18.37;;;;;;;-0.62;70.64;100599.28;1709563;83;21339;-62
2020/12/01 01:56:21;;;;;;;28.38;17.30;;;;;;;-0.61;70.60;100597.77;1717346;83;21201;-63
2020/12/01 01:58:49;;;;;;;33.13;17.75;;;;;;;-0.60;70.38;100594.06;1729528;82;21173;-63
2020/12/01 02:01:19;;;;;;;30.30;17.73;;;;;;;-0.60;70.42;100599.41;1693929;83;21303;-62
2020/12/01 02:03:51;;;;;;;55.20;29.72;;;;;;;-0.59;70.08;100594.91;1714890;83;21641;-64
2020/12/01 02:06:28;;;;;;;39.00;20.80;;;;;;;-0.60;69.98;100600.75;1719480;83;21334;-62
2020/12/01 02:08:59;;;;;;;31.70;17.48;;;;;;;-0.61;70.15;100607.13;1720453;83;21761;-62
2020/12/01 02:11:28;;;;;;;34.85;19.70;;;;;;;-0.58;69.54;100601.42;1722557;83;21593;-62
2020/12/01 02:14:20;;;;;;;29.50;16.87;;;;;;;-0.62;69.45;100604.13;1720553;82;21612;-62
2020/12/01 02:16:53;;;;;;;32.83;17.87;;;;;;;-0.61;69.32;100595.59;1712385;83;21141;-62
2020/12/01 02:19:28;;;;;;;30.20;16.70;;;;;;;-0.65;69.48;100592.95;1706265;82;21209;-62
2020/12/01 02:21:56;;;;;;;28.50;15.20;;;;;;;-0.65;69.17;100600.47;1706915;83;21279;-62
2020/12/01 02:24:27;;;;;;;24.43;14.28;;;;;;;-0.63;69.28;100599.78;1717675;83;21176;-61
2020/12/01 02:26:56;;;;;;;36.05;18.75;;;;;;;-0.61;68.67;100603.13;1715437;83;21173;-62
2020/12/01 02:29:30;;;;;;;21.42;12.85;;;;;;;-0.63;68.61;100604.29;1678667;83;21121;-62
2020/12/01 02:31:58;;;;;;;22.85;13.00;;;;;;;-0.69;68.83;100611.19;1723405;82;21642;-62
2020/12/01 02:34:40;;;;;;;40.35;19.45;;;;;;;-0.66;68.84;100619.36;1719844;83;21311;-62
2020/12/01 02:37:08;;;;;;;25.52;13.60;;;;;;;-0.72;69.08;100622.25;1722846;83;21810;-62
2020/12/01 02:39:36;;;;;;;33.25;18.25;;;;;;;-0.67;69.11;100623.03;1713350;83;21198;-62
2020/12/01 02:42:06;;;;;;;22.42;13.18;;;;;;;-0.66;69.22;100626.87;1669634;83;21180;-63
2020/12/01 02:44:34;;;;;;;29.35;16.45;;;;;;;-0.59;69.05;100636.36;1714808;82;21214;-63
2020/12/01 02:47:04;;;;;;;38.73;19.62;;;;;;;-0.57;69.03;100628.47;1696089;83;21168;-62
2020/12/01 02:49:35;;;;;;;23.15;12.70;;;;;;;-0.54;68.84;100641.52;1726482;82;21609;-62
2020/12/01 02:52:03;;;;;;;25.62;13.75;;;;;;;-0.58;68.88;100644.21;1717407;83;21310;-62
2020/12/01 02:54:31;;;;;;;27.05;14.85;;;;;;;-0.58;68.96;100643.38;1693867;83;21642;-62
2020/12/01 02:56:59;;;;;;;27.62;15.48;;;;;;;-0.66;68.92;100637.58;1704336;83;21531;-62
2020/12/01 02:59:26;;;;;;;22.30;12.58;;;;;;;-0.68;69.09;100634.26;1720809;83;21330;-62
2020/12/01 03:01:54;;;;;;;21.62;12.53;;;;;;;-0.71;69.24;100638.59;1712174;83;21176;-62
2020/12/01 03:04:21;;;;;;;19.45;11.15;;;;;;;-0.72;69.09;100638.30;1689148;83;21215;-62
2020/12/01 03:06:48;;;;;;;25.75;15.48;;;;;;;-0.74;69.24;100637.63;1699312;82;21339;-62
2020/12/01 03:09:18;;;;;;;20.40;12.47;;;;;;;-0.73;69.30;100632.61;1692894;83;21133;-62
2020/12/01 03:11:45;;;;;;;26.20;14.13;;;;;;;-0.73;69.25;100620.58;1708703;83;21599;-63
2020/12/01 03:14:13;;;;;;;22.35;13.98;;;;;;;-0.66;69.24;100624.20;1672487;84;21183;-62
2020/12/01 03:16:40;;;;;;;19.82;11.57;;;;;;;-0.63;69.04;100629.19;1688963;84;21173;-62
2020/12/01 03:19:08;;;;;;;22.82;13.60;;;;;;;-0.65;68.99;100617.02;1708839;84;21337;-63
2020/12/01 03:21:35;;;;;;;23.35;13.62;;;;;;;-0.63;69.10;100625.18;1682409;84;21157;-63
2020/12/01 03:24:02;;;;;;;21.55;13.35;;;;;;;-0.58;69.09;100634.86;1651349;84;21635;-63
2020/12/01 03:26:29;;;;;;;18.50;11.08;;;;;;;-0.57;69.02;100636.50;1687332;84;21369;-63
2020/12/01 03:28:57;;;;;;;18.77;11.40;;;;;;;-0.51;68.55;100634.97;1706754;84;21320;-62
2020/12/01 03:31:24;;;;;;;22.87;13.40;;;;;;;-0.51;68.36;100633.63;1709071;84;21165;-63
2020/12/01 03:33:51;;;;;;;17.37;10.38;;;;;;;-0.59;68.36;100633.18;1707086;82;21594;-63
2020/12/01 03:36:19;;;;;;;17.80;10.65;;;;;;;-0.56;68.28;100632.81;1664499;85;21295;-63
2020/12/01 03:38:46;;;;;;;19.20;11.18;;;;;;;-0.57;68.31;100639.70;1698122;84;21196;-64
2020/12/01 03:41:14;;;;;;;41.70;21.25;;;;;;;-0.62;67.90;100640.22;1698828;83;21304;-63
2020/12/01 03:43:41;;;;;;;22.27;11.25;;;;;;;-0.64;67.87;100643.56;1682420;84;21126;-63
2020/12/01 03:46:09;;;;;;;25.77;14.78;;;;;;;-0.70;67.91;100641.61;1689156;84;21291;-63
2020/12/01 03:48:37;;;;;;;48.25;24.43;;;;;;;-0.69;67.84;100643.28;1691556;84;21169;-63
2020/12/01 03:51:05;;;;;;;57.95;28.77;;;;;;;-0.72;67.92;100640.13;1709105;84;21331;-63
2020/12/01 03:53:32;;;;;;;31.70;16.27;;;;;;;-0.71;67.96;100639.94;1708956;84;21122;-63
2020/12/01 03:55:59;;;;;;;21.37;12.23;;;;;;;-0.76;68.09;100638.31;1706428;83;21283;-63
2020/12/01 03:58:27;;;;;;;16.25;9.40;;;;;;;-0.72;67.48;100634.28;1689296;84;21656;-63
2020/12/01 04:00:54;;;;;;;16.95;9.33;;;;;;;-0.72;67.33;100625.42;1703148;84;21593;-63
2020/12/01 04:03:22;;;;;;;19.00;10.43;;;;;;;-0.76;67.59;100620.09;1676636;85;21336;-63
2020/12/01 04:05:49;;;;;;;12.95;7.53;;;;;;;-0.79;67.69;100620.45;1688585;84;21148;-64
2020/12/01 04:08:16;;;;;;;22.42;12.43;;;;;;;-0.87;67.89;100630.70;1708855;84;21683;-63
2020/12/01 04:10:43;;;;;;;18.52;10.45;;;;;;;-0.88;68.04;100629.52;1684438;84;21598;-64
2020/12/01 04:13:11;;;;;;;15.35;8.70;;;;;;;-0.94;68.33;100624.39;1709308;83;21745;-63
2020/12/01 04:15:38;;;;;;;39.80;21.85;;;;;;;-0.93;68.38;100621.22;1688982;84;21141;-64
2020/12/01 04:18:05;;;;;;;23.00;11.30;;;;;;;-0.90;68.48;100616.84;1680181;84;21156;-62
2020/12/01 04:20:33;;;;;;;17.82;10.63;;;;;;;-0.85;68.44;100630.00;1697531;84;21586;-63
2020/12/01 04:23:00;;;;;;;17.85;10.43;;;;;;;-0.82;68.39;100624.33;1692447;84;21126;-63
2020/12/01 04:25:27;;;;;;;23.02;13.75;;;;;;;-0.82;68.29;100625.66;1706947;83;21277;-63
2020/12/01 04:27:56;;;;;;;27.98;14.30;;;;;;;-0.82;68.21;100629.67;1687573;84;21296;-62
2020/12/01 04:30:25;;;;;;;25.08;14.63;;;;;;;-0.83;68.21;100634.68;1666026;84;21150;-63
2020/12/01 04:32:53;;;;;;;17.73;9.68;;;;;;;-0.84;67.98;100630.34;1694920;82;21292;-63
2020/12/01 04:35:22;;;;;;;15.90;8.95;;;;;;;-0.83;68.00;100627.16;1678557;85;21586;-65
2020/12/01 04:37:50;;;;;;;18.80;10.85;;;;;;;-0.83;67.92;100621.31;1706920;84;21347;-65
2020/12/01 04:40:24;;;;;;;18.45;11.10;;;;;;;-0.78;67.86;100617.59;1678418;84;21331;-65
2020/12/01 04:42:59;;;;;;;13.93;8.68;;;;;;;-0.79;67.99;100619.13;1684064;84;21315;-65
2020/12/01 04:45:27;;;;;;;16.27;9.28;;;;;;;-0.74;68.14;100616.73;1709009;83;21170;-63
2020/12/01 04:48:08;;;;;;;15.78;9.55;;;;;;;-0.75;67.45;100617.27;1712352;82;21612;-63
2020/12/01 04:50:41;;;;;;;18.30;10.45;;;;;;;-0.81;67.59;100624.63;1709837;83;21569;-63
2020/12/01 04:53:46;;;;;;;19.32;10.55;;;;;;;-0.83;67.34;100625.33;1683516;84;21315;-64
2020/12/01 04:56:45;;;;;;;19.00;10.55;;;;;;;-0.83;67.33;100634.68;1683931;84;21845;-63
2020/12/01 04:59:35;;;;;;;;;;;;;;;-0.78;67.23;100644.33;1692583;84;21724;-62
2020/12/01 05:02:23;;;;;;;19.90;9.78;;;;;;;-0.76;66.98;100642.83;1709109;84;20459;-63
2020/12/01 05:05:36;;;;;;;20.72;11.85;;;;;;;-0.79;66.98;100641.84;1693952;82;21160;-63
2020/12/01 05:08:30;;;;;;;18.37;9.60;;;;;;;-0.80;66.79;100645.02;1707958;82;21133;-63
2020/12/01 05:11:02;;;;;;;20.40;11.93;;;;;;;-0.84;67.22;100642.36;1709048;84;21145;-63
2020/12/01 05:13:33;;;;;;;17.25;10.20;;;;;;;-0.83;67.18;100641.86;1709087;83;21312;-63
2020/12/01 05:16:30;;;;;;;18.98;10.20;;;;;;;-0.79;67.10;100650.70;1709086;84;21291;-63
2020/12/01 05:18:57;;;;;;;22.02;10.50;;;;;;;-0.80;66.92;100649.03;1669991;84;21683;-62
2020/12/01 05:21:26;;;;;;;22.45;12.05;;;;;;;-0.80;66.84;100647.69;1712198;84;21145;-63
2020/12/01 05:23:53;;;;;;;17.07;9.90;;;;;;;-0.79;66.87;100648.03;1708853;82;21341;-63
2020/12/01 05:26:22;;;;;;;18.15;10.35;;;;;;;-0.80;66.77;100641.51;1709156;84;21161;-63
2020/12/01 05:28:55;;;;;;;21.62;11.97;;;;;;;-0.77;66.74;100645.16;1702487;82;21321;-63
2020/12/01 05:31:26;;;;;;;20.68;10.82;;;;;;;-0.79;66.66;100651.20;1708939;84;21319;-63
2020/12/01 05:34:03;;;;;;;20.37;11.25;;;;;;;-0.80;66.46;100650.36;1708947;82;21149;-64
2020/12/01 05:36:35;;;;;;;20.60;11.87;;;;;;;-0.83;66.53;100642.70;1665509;85;21303;-63
2020/12/01 05:39:16;;;;;;;19.90;10.32;;;;;;;-0.82;66.67;100645.71;1705184;82;21323;-63
2020/12/01 05:41:47;;;;;;;18.02;10.13;;;;;;;-0.74;66.21;100647.48;1708808;84;21291;-63
2020/12/01 05:44:24;;;;;;;18.48;10.23;;;;;;;-0.81;66.44;100642.01;1708893;82;21165;-63
2020/12/01 05:47:16;;;;;;;20.12;10.70;;;;;;;-0.80;66.51;100643.69;1702169;84;21275;-63
2020/12/01 05:49:52;;;;;;;19.82;9.85;;;;;;;-0.82;66.47;100647.05;1708585;82;21736;-63
2020/12/01 05:52:29;;;;;;;32.08;16.82;;;;;;;-0.82;66.42;100639.03;1708755;83;21733;-63
2020/12/01 05:55:16;;;;;;;89.55;44.93;;;;;;;-0.82;66.70;100640.37;1709426;82;21639;-63
2020/12/01 05:57:45;;;;;;;22.17;13.85;;;;;;;-0.81;66.64;100638.00;1704888;84;21308;-64
2020/12/01 06:00:20;;;;;;;21.48;11.80;;;;;;;-0.80;66.66;100638.83;1708209;84;21287;-63
2020/12/01 06:03:30;;;;;;;20.90;13.15;;;;;;;-0.81;66.63;100632.65;1709179;84;21320;-62
2020/12/01 06:05:58;;;;;;;;;;;;;;;-0.83;66.54;100641.36;1697417;84;21287;-63
2020/12/01 06:08:52;;;;;;;18.17;10.32;;;;;;;-0.92;66.60;100638.39;1708816;82;20188;-63
2020/12/01 06:11:50;;;;;;;18.42;10.25;;;;;;;-1.00;66.47;100645.14;1707867;83;21829;-63
2020/12/01 06:16:23;;;;;;;18.90;11.20;;;;;;;-1.02;66.11;100639.95;1817329;77;23395;-62
2020/12/01 06:19:26;;;;;;;16.20;10.08;;;;;;;-1.11;66.14;100651.71;1775813;80;21136;-62
2020/12/01 06:22:11;;;;;;;17.12;9.05;;;;;;;-1.06;65.89;100656.01;1753645;82;21597;-62
2020/12/01 06:25:07;;;;;;;18.50;10.75;;;;;;;-1.14;65.87;100646.72;1754077;80;21121;-62
2020/12/01 06:28:12;;;;;;;18.85;10.60;;;;;;;-1.13;65.94;100652.37;1754883;81;21814;-62
2020/12/01 06:31:27;;;;;;;20.20;10.53;;;;;;;-1.17;66.02;100652.38;1754690;81;21201;-62
2020/12/01 06:34:33;;;;;;;18.20;8.70;;;;;;;-1.14;65.92;100656.07;1690253;84;21211;-61
2020/12/01 06:37:38;;;;;;;17.65;8.85;;;;;;;-1.14;65.90;100662.75;1779678;79;23055;-61
2020/12/01 06:40:20;;;;;;;19.35;9.45;;;;;;;-1.19;65.95;100667.77;1710837;83;21357;-60
2020/12/01 06:42:52;;;;;;;18.98;10.13;;;;;;;-1.16;65.96;100667.42;1722674;83;21704;-60
2020/12/01 06:45:33;;;;;;;19.02;10.00;;;;;;;-1.16;65.95;100666.08;1722501;83;21200;-62
2020/12/01 06:48:08;;;;;;;17.48;10.35;;;;;;;-1.05;65.71;100668.88;1722534;83;21153;-61
2020/12/01 06:50:38;;;;;;;19.80;10.90;;;;;;;-1.02;65.54;100669.86;1707316;83;21330;-61
2020/12/01 06:53:06;;;;;;;18.77;11.35;;;;;;;-1.02;65.38;100662.67;1713639;83;21197;-61
2020/12/01 06:55:55;;;;;;;19.30;11.10;;;;;;;-1.00;65.30;100666.52;1693860;83;21719;-61
2020/12/01 06:58:32;;;;;;;18.67;10.63;;;;;;;-1.02;65.41;100675.20;1717643;83;21388;-61
2020/12/01 07:01:25;;;;;;;21.45;11.95;;;;;;;-0.99;65.04;100681.53;1716497;83;21279;-61
2020/12/01 07:04:09;;;;;;;27.32;14.33;;;;;;;-1.01;65.24;100675.04;1721619;83;21605;-60
2020/12/01 07:06:57;;;;;;;28.02;15.18;;;;;;;-1.11;65.07;100661.06;1722437;83;21318;-60
2020/12/01 07:09:42;;;;;;;33.10;16.23;;;;;;;-0.93;65.02;100687.54;1722213;83;21169;-60
2020/12/01 07:12:19;;;;;;;36.48;18.87;;;;;;;-0.95;65.18;100684.69;1722412;83;21144;-60
2020/12/01 07:15:09;;;;;;;38.60;19.17;;;;;;;-0.90;64.97;100690.36;1707569;83;21214;-61
2020/12/01 07:17:46;;;;;;;35.38;16.75;;;;;;;-0.90;65.09;100696.54;1719118;82;21117;-60
2020/12/01 07:20:19;;;;;;;30.17;15.55;;;;;;;-0.88;65.04;100693.67;1722093;83;21306;-61
2020/12/01 07:22:57;;;;;;;25.45;12.58;;;;;;;-0.85;64.79;100697.36;1722732;83;21182;-61
2020/12/01 07:25:51;;;;;;;25.85;13.62;;;;;;;-0.86;64.89;100688.50;1719960;83;21185;-61
2020/12/01 07:28:39;;;;;;;24.82;12.40;;;;;;;-0.85;65.23;100690.68;1719661;83;21341;-61
2020/12/01 07:31:29;;;;;;;24.27;13.08;;;;;;;-0.90;65.45;100683.17;1715561;83;21135;-61
2020/12/01 07:34:07;;;;;;;18.80;10.25;;;;;;;-0.83;65.45;100685.47;1684810;83;21334;-61
2020/12/01 07:36:41;;;;;;;21.12;10.93;;;;;;;-0.80;65.46;100686.45;1714354;83;21118;-61
2020/12/01 07:39:20;;;;;;;18.90;10.48;;;;;;;-0.70;65.35;100690.23;1667445;85;21203;-62
2020/12/01 07:41:55;;;;;;;18.55;11.18;;;;;;;-0.67;65.37;100689.88;1693121;85;21323;-61
2020/12/01 07:44:26;;;;;;;16.87;10.60;;;;;;;-0.60;65.37;100688.17;1711502;83;21174;-62
2020/12/01 07:47:06;;;;;;;18.00;11.85;;;;;;;-0.53;65.76;100690.46;1722281;83;21192;-61
2020/12/01 07:49:34;;;;;;;19.55;11.48;;;;;;;-0.52;66.04;100688.96;1722913;83;21327;-62
2020/12/01 07:52:24;;;;;;;20.27;12.68;;;;;;;-0.53;67.62;100689.96;1699178;83;21573;-62
2020/12/01 07:55:07;;;;;;;17.40;11.12;;;;;;;-0.57;68.67;100691.32;1723002;83;21651;-62
2020/12/01 07:57:34;;;;;;;21.25;13.45;;;;;;;-0.65;69.88;100685.20;1716509;83;21153;-62
2020/12/01 08:00:04;;;;;;;19.85;12.78;;;;;;;-0.67;70.09;100685.38;1667137;83;21338;-62
2020/12/01 08:02:33;;;;;;;22.27;13.43;;;;;;;-0.74;71.06;100685.75;1721635;83;21192;-62
2020/12/01 08:05:07;;;;;;;23.73;14.58;;;;;;;-0.69;70.87;100690.58;1722785;83;21186;-61
2020/12/01 08:07:35;;;;;;;22.20;14.15;;;;;;;-0.70;71.13;100690.23;1700514;83;21122;-63
2020/12/01 08:10:12;;;;;;;24.02;14.98;;;;;;;-0.65;71.22;100694.06;1708348;83;21186;-61
2020/12/01 08:12:46;;;;;;;17.85;12.23;;;;;;;-0.69;71.72;100690.08;1697156;83;21144;-62
2020/12/01 08:15:20;;;;;;;17.82;12.05;;;;;;;-0.69;72.16;100690.58;1722836;83;21185;-61
2020/12/01 08:17:49;;;;;;;22.22;11.50;;;;;;;-0.74;72.50;100692.93;1708093;83;21545;-62
2020/12/01 08:20:19;;;;;;;21.48;12.95;;;;;;;-0.86;73.13;100697.02;1714650;83;21744;-62
2020/12/01 08:23:07;;;;;;;21.05;12.65;;;;;;;-0.83;72.99;100692.16;1722903;82;21148;-61
2020/12/01 08:25:36;;;;;;;17.02;10.95;;;;;;;-0.84;73.42;100686.47;1694359;83;21348;-62
2020/12/01 08:28:15;;;;;;;20.45;12.33;;;;;;;-0.74;73.49;100686.25;1722767;82;21813;-61
2020/12/01 08:31:13;;;;;;;19.37;12.18;;;;;;;-0.62;73.42;100692.88;1722694;83;21177;-62
2020/12/01 08:34:05;;;;;;;18.45;12.28;;;;;;;-0.58;73.48;100691.02;1719023;83;21319;-62
2020/12/01 08:36:58;;;;;;;19.25;11.88;;;;;;;-0.47;73.28;100695.13;1708649;83;21304;-62
2020/12/01 08:39:50;;;;;;;19.57;12.58;;;;;;;-0.43;73.47;100690.25;1708988;82;21723;-61
2020/12/01 08:42:48;;;;;;;20.05;11.70;;;;;;;-0.36;73.06;100673.82;1704752;83;21303;-62
2020/12/01 08:45:38;;;;;;;17.37;11.45;;;;;;;-0.19;72.99;100680.70;1707682;84;21292;-63
2020/12/01 08:48:07;;;;;;;23.10;14.35;;;;;;;0.08;72.22;100679.30;1707868;84;21586;-62
2020/12/01 08:50:38;;;;;;;19.40;13.43;;;;;;;0.12;71.44;100682.78;1684320;84;21728;-61
2020/12/01 08:53:20;;;;;;;17.57;11.03;;;;;;;0.20;71.29;100677.36;1655621;85;21315;-61
2020/12/01 08:55:53;;;;;;;19.95;13.03;;;;;;;0.29;71.07;100668.72;1669575;86;21348;-61
2020/12/01 08:58:29;;;;;;;20.15;13.58;;;;;;;0.44;70.73;100671.75;1670475;86;21637;-61
2020/12/01 09:01:03;;;;;;;18.10;12.73;;;;;;;0.60;70.50;100669.41;1663124;86;21350;-60
2020/12/01 09:03:31;;;;;;;22.85;13.53;;;;;;;0.70;69.43;100663.77;1690371;83;21315;-61
2020/12/01 09:06:01;;;;;;;17.82;11.40;;;;;;;0.73;69.11;100654.84;1686651;84;21615;-61
2020/12/01 09:08:44;;;;;;;18.95;12.07;;;;;;;0.65;68.83;100656.78;1657918;85;21157;-61
2020/12/01 09:17:35;;;;;;;21.55;11.75;;;;;;;0.46;69.38;100660.86;1678487;84;21322;-61
2020/12/01 09:20:29;;;;;;;18.73;11.73;;;;;;;0.36;69.46;100653.58;1694601;84;21741;-61
2020/12/01 09:22:50;;;;;;;22.02;13.00;;;;;;;0.27;69.66;100662.22;1708427;82;21705;-62
2020/12/01 09:25:23;;;;;;;24.70;14.43;;;;;;;0.24;69.86;100651.04;1705271;82;21149;-61
2020/12/01 09:27:51;;;;;;;21.35;12.63;;;;;;;0.24;69.76;100650.54;1720978;82;21164;-61
2020/12/01 09:30:32;;;;;;;21.05;12.55;;;;;;;0.35;69.52;100646.58;1713604;82;22020;-62
2020/12/01 09:32:59;;;;;;;16.93;10.93;;;;;;;0.35;69.40;100646.58;1739142;81;21160;-61
2020/12/01 09:35:27;;;;;;;20.35;12.43;;;;;;;0.37;68.89;100640.02;1716586;82;21174;-62
2020/12/01 09:37:54;;;;;;;20.45;10.95;;;;;;;0.42;68.73;100640.31;1694204;83;21179;-62
2020/12/01 09:40:24;;;;;;;19.80;12.35;;;;;;;0.35;69.06;100650.59;1676508;84;21327;-63
2020/12/01 09:42:53;;;;;;;21.30;12.37;;;;;;;0.34;68.92;100642.23;1708673;82;21177;-62
2020/12/01 09:45:26;;;;;;;16.27;9.58;;;;;;;0.39;69.14;100651.36;1708713;84;21288;-62
2020/12/01 09:48:00;;;;;;;24.10;14.35;;;;;;;0.44;69.06;100653.50;1704241;84;21163;-61
2020/12/01 09:50:30;;;;;;;21.00;12.53;;;;;;;0.48;68.92;100644.92;1701897;84;21309;-60
2020/12/01 10:35:41;;;;;;;13.15;8.00;;;;;;;0.41;68.13;100617.70;1719230;83;21307;-59
2020/12/01 10:38:08;;;;;;;10.53;6.40;;;;;;;0.41;67.52;100617.20;1680302;83;21141;-60
2020/12/01 10:40:36;;;;;;;14.68;9.05;;;;;;;0.46;66.98;100618.00;1683747;84;21346;-62
2020/12/01 10:43:03;;;;;;;11.50;7.85;;;;;;;0.44;67.60;100613.31;1711882;84;21177;-59
2020/12/01 10:45:31;;;;;;;10.85;7.03;;;;;;;0.44;67.30;100612.81;1711923;84;21342;-60
2020/12/01 10:48:00;;;;;;;11.85;7.15;;;;;;;0.34;67.58;100618.95;1698476;84;21156;-59
2020/12/01 10:50:29;;;;;;;9.80;6.90;;;;;;;0.33;67.82;100609.25;1706294;84;21144;-60
2020/12/01 10:52:57;;;;;;;11.50;6.45;;;;;;;0.32;67.95;100605.44;1678289;85;21351;-60
2020/12/01 10:55:31;;;;;;;11.35;7.42;;;;;;;0.32;68.14;100612.94;1683534;85;21338;-60
2020/12/01 10:57:59;;;;;;;9.75;6.17;;;;;;;0.28;68.48;100607.66;1683930;85;21328;-60
2020/12/01 11:00:27;;;;;;;11.68;7.67;;;;;;;0.19;69.05;100609.24;1666355;85;21238;-61
2020/12/01 11:02:55;;;;;;;10.70;6.60;;;;;;;0.16;69.70;100617.14;1678101;85;21759;-60
2020/12/01 11:05:27;;;;;;;9.85;6.83;;;;;;;0.14;70.22;100616.51;1671679;84;21197;-61
2020/12/01 11:07:56;;;;;;;8.98;5.80;;;;;;;0.09;69.75;100610.86;1678196;84;21330;-59
2020/12/01 11:10:23;;;;;;;11.40;6.33;;;;;;;0.09;69.41;100606.84;1646925;85;21330;-60
2020/12/01 11:12:51;;;;;;;9.35;5.97;;;;;;;0.10;69.78;100617.88;1684861;85;21228;-61
2020/12/01 11:15:19;;;;;;;10.72;5.55;;;;;;;0.14;69.89;100612.49;1693723;85;21513;-59
2020/12/01 11:17:46;;;;;;;9.15;4.95;;;;;;;0.20;69.83;100602.38;1679393;85;21177;-61
2020/12/01 11:20:15;;;;;;;10.68;6.12;;;;;;;0.22;69.71;100600.84;1712758;82;21208;-59
2020/12/01 11:22:45;;;;;;;9.35;5.75;;;;;;;0.18;69.64;100596.36;1714061;84;21299;-61
2020/12/01 11:25:13;;;;;;;7.87;4.90;;;;;;;0.19;69.45;100602.05;1665609;86;21614;-61
2020/12/01 11:27:40;;;;;;;7.45;4.90;;;;;;;0.17;69.49;100610.78;1740777;82;21688;-60
2020/12/01 11:30:08;;;;;;;8.90;5.20;;;;;;;0.21;69.21;100601.38;1740959;82;21220;-61
2020/12/01 11:32:36;;;;;;;9.40;4.87;;;;;;;0.12;69.48;100605.12;1743772;82;21664;-61
2020/12/01 11:35:04;;;;;;;9.60;5.72;;;;;;;0.18;69.53;100600.38;1741008;82;21207;-61
2020/12/01 11:37:32;;;;;;;12.58;6.55;;;;;;;0.16;70.12;100602.92;1720882;82;21537;-60
2020/12/01 11:40:00;;;;;;;11.53;6.45;;;;;;;0.18;70.38;100603.59;1651001;85;21172;-61
2020/12/01 11:42:27;;;;;;;10.13;5.22;;;;;;;0.16;70.49;100601.58;1713963;84;21311;-61
2020/12/01 11:44:54;;;;;;;10.08;6.20;;;;;;;0.17;70.58;100610.78;1712061;82;21157;-60
2020/12/01 11:47:21;;;;;;;11.43;6.03;;;;;;;0.13;71.03;100604.13;1637618;86;21315;-61
2020/12/01 11:49:49;;;;;;;11.12;5.67;;;;;;;0.06;71.54;100609.05;1714119;84;21181;-60
2020/12/01 11:52:16;;;;;;;10.95;5.62;;;;;;;-0.02;71.80;100603.27;1688029;84;21326;-61
2020/12/01 11:54:44;;;;;;;12.82;5.85;;;;;;;-0.05;72.44;100607.15;1713936;84;21645;-60
2020/12/01 11:57:12;;;;;;;12.55;7.03;;;;;;;-0.11;72.75;100602.50;1692756;82;21114;-60
2020/12/01 11:59:39;;;;;;;8.88;4.75;;;;;;;-0.15;73.21;100599.89;1743082;82;21611;-60
2020/12/01 12:02:06;;;;;;;10.53;6.45;;;;;;;-0.16;73.05;100588.85;1743726;82;21642;-60
2020/12/01 12:04:35;;;;;;;12.25;7.20;;;;;;;-0.15;73.25;100591.02;1716408;82;21179;-61
2020/12/01 12:07:03;;;;;;;15.15;8.50;;;;;;;-0.16;73.69;100593.37;1716653;82;21472;-60
2020/12/01 12:09:30;;;;;;;15.75;9.10;;;;;;;-0.15;73.79;100589.69;1743660;82;21341;-61
2020/12/01 12:11:58;;;;;;;16.27;8.48;;;;;;;-0.14;73.88;100584.13;1743764;81;21723;-60
2020/12/01 12:14:25;;;;;;;15.43;8.28;;;;;;;-0.09;73.76;100588.95;1726643;82;21145;-61
2020/12/01 12:16:52;;;;;;;12.65;7.35;;;;;;;-0.07;73.97;100592.27;1701636;82;21168;-61
2020/12/01 12:19:20;;;;;;;12.85;7.62;;;;;;;-0.11;74.40;100586.44;1746321;82;21165;-61
2020/12/01 12:21:47;;;;;;;14.07;6.65;;;;;;;-0.06;74.41;100587.24;1722778;83;21330;-61
2020/12/01 12:24:14;;;;;;;13.70;7.78;;;;;;;-0.15;74.50;100589.19;1722858;83;21672;-61
2020/12/01 12:26:43;;;;;;;12.33;7.42;;;;;;;-0.18;74.46;100590.05;1736340;82;21119;-62
2020/12/01 12:29:10;;;;;;;13.45;7.37;;;;;;;-0.12;74.48;100604.04;1701743;82;21315;-61
2020/12/01 12:31:37;;;;;;;14.90;8.18;;;;;;;-0.22;75.29;100604.30;1749612;81;21319;-61
2020/12/01 12:34:05;;;;;;;13.00;7.78;;;;;;;-0.17;75.02;100597.88;1739749;82;21308;-61
2020/12/01 12:36:32;;;;;;;12.85;8.13;;;;;;;-0.20;75.55;100595.58;1719941;82;21172;-62
2020/12/01 12:39:00;;;;;;;14.35;9.20;;;;;;;-0.15;75.54;100600.39;1696304;83;21165;-62